sensor_id;sensor_type;location;lat;lon;timestamp;P1;durP1;ratioP1;P2;durP2;ratioP2
2191;SDS011;1102;49.718;11.902;2022-08-04T00:02:22;11.33;;;5.23;;
2191;SDS011;1102;49.718;11.902;2022-08-04T00:08:05;12.30;;;5.40;;
2191;SDS011;1102;49.718;11.902;2022-08-04T00:10:39;6.10;;;4.67;;
2191;SDS011;1102;49.718;11.902;2022-08-04T00:13:13;10.50;;;5.70;;
2191;SDS011;1102;49.718;11.902;2022-08-04T00:15:42;9.83;;;5.77;;
2191;SDS011;1102;49.718;11.902;2022-08-04T00:18:09;10.97;;;4.97;;
2191;SDS011;1102;49.718;11.902;2022-08-04T00:20:40;13.87;;;6.10;;
2191;SDS011;1102;49.718;11.902;2022-08-04T00:23:08;16.60;;;6.23;;
2191;SDS011;1102;49.718;11.902;2022-08-04T00:25:39;18.13;;;7.33;;
2191;SDS011;1102;49.718;11.902;2022-08-04T00:28:06;8.90;;;6.30;;
2191;SDS011;1102;49.718;11.902;2022-08-04T00:30:34;14.70;;;7.00;;
2191;SDS011;1102;49.718;11.902;2022-08-04T00:33:01;28.43;;;7.83;;
2191;SDS011;1102;49.718;11.902;2022-08-04T00:35:28;21.43;;;6.93;;
2191;SDS011;1102;49.718;11.902;2022-08-04T00:37:55;13.73;;;8.50;;
2191;SDS011;1102;49.718;11.902;2022-08-04T00:40:24;23.77;;;8.10;;
2191;SDS011;1102;49.718;11.902;2022-08-04T00:43:32;42.07;;;8.20;;
2191;SDS011;1102;49.718;11.902;2022-08-04T00:49:25;18.67;;;7.23;;
2191;SDS011;1102;49.718;11.902;2022-08-04T00:52:30;26.73;;;7.50;;
2191;SDS011;1102;49.718;11.902;2022-08-04T01:06:11;21.50;;;8.10;;
2191;SDS011;1102;49.718;11.902;2022-08-04T01:19:49;16.40;;;7.07;;
2191;SDS011;1102;49.718;11.902;2022-08-04T01:31:29;16.80;;;6.87;;
2191;SDS011;1102;49.718;11.902;2022-08-04T01:34:01;34.67;;;9.63;;
2191;SDS011;1102;49.718;11.902;2022-08-04T01:36:32;12.93;;;7.63;;
2191;SDS011;1102;49.718;11.902;2022-08-04T01:39:01;21.00;;;7.07;;
2191;SDS011;1102;49.718;11.902;2022-08-04T01:41:47;20.97;;;9.37;;
2191;SDS011;1102;49.718;11.902;2022-08-04T01:44:24;18.90;;;6.27;;
2191;SDS011;1102;49.718;11.902;2022-08-04T01:46:53;18.40;;;7.97;;
2191;SDS011;1102;49.718;11.902;2022-08-04T01:49:21;27.57;;;7.10;;
2191;SDS011;1102;49.718;11.902;2022-08-04T01:51:49;10.07;;;7.13;;
2191;SDS011;1102;49.718;11.902;2022-08-04T01:54:17;15.43;;;6.83;;
2191;SDS011;1102;49.718;11.902;2022-08-04T01:56:48;15.13;;;6.67;;
2191;SDS011;1102;49.718;11.902;2022-08-04T01:59:19;17.43;;;6.23;;
2191;SDS011;1102;49.718;11.902;2022-08-04T02:01:46;10.53;;;6.07;;
2191;SDS011;1102;49.718;11.902;2022-08-04T02:04:14;11.83;;;6.40;;
2191;SDS011;1102;49.718;11.902;2022-08-04T02:06:51;11.03;;;6.10;;
2191;SDS011;1102;49.718;11.902;2022-08-04T02:12:01;9.60;;;5.67;;
2191;SDS011;1102;49.718;11.902;2022-08-04T02:14:44;13.27;;;6.60;;
2191;SDS011;1102;49.718;11.902;2022-08-04T02:20:23;11.70;;;5.50;;
2191;SDS011;1102;49.718;11.902;2022-08-04T02:22:58;7.03;;;4.63;;
2191;SDS011;1102;49.718;11.902;2022-08-04T02:25:27;10.67;;;5.90;;
2191;SDS011;1102;49.718;11.902;2022-08-04T02:33:42;13.67;;;5.83;;
2191;SDS011;1102;49.718;11.902;2022-08-04T02:36:21;7.53;;;6.43;;
2191;SDS011;1102;49.718;11.902;2022-08-04T02:41:20;9.93;;;6.37;;
2191;SDS011;1102;49.718;11.902;2022-08-04T02:43:48;21.77;;;6.90;;
2191;SDS011;1102;49.718;11.902;2022-08-04T02:46:19;8.03;;;5.90;;
2191;SDS011;1102;49.718;11.902;2022-08-04T02:48:47;19.93;;;6.87;;
2191;SDS011;1102;49.718;11.902;2022-08-04T02:51:16;6.57;;;5.80;;
2191;SDS011;1102;49.718;11.902;2022-08-04T02:53:51;12.27;;;5.80;;
2191;SDS011;1102;49.718;11.902;2022-08-04T02:56:19;9.23;;;5.73;;
2191;SDS011;1102;49.718;11.902;2022-08-04T02:58:50;10.00;;;7.03;;
2191;SDS011;1102;49.718;11.902;2022-08-04T03:01:20;11.80;;;7.00;;
2191;SDS011;1102;49.718;11.902;2022-08-04T03:04:32;7.13;;;5.53;;
2191;SDS011;1102;49.718;11.902;2022-08-04T03:10:17;9.50;;;5.80;;
2191;SDS011;1102;49.718;11.902;2022-08-04T03:12:56;9.87;;;4.97;;
2191;SDS011;1102;49.718;11.902;2022-08-04T03:30:03;9.03;;;5.67;;
2191;SDS011;1102;49.718;11.902;2022-08-04T03:38:16;7.03;;;6.20;;
2191;SDS011;1102;49.718;11.902;2022-08-04T03:52:50;7.60;;;6.17;;
2191;SDS011;1102;49.718;11.902;2022-08-04T03:58:26;7.93;;;5.30;;
2191;SDS011;1102;49.718;11.902;2022-08-04T04:01:09;6.83;;;6.30;;
2191;SDS011;1102;49.718;11.902;2022-08-04T04:15:49;8.13;;;7.30;;
2191;SDS011;1102;49.718;11.902;2022-08-04T04:32:20;8.00;;;7.07;;
2191;SDS011;1102;49.718;11.902;2022-08-04T04:35:09;10.40;;;6.87;;
2191;SDS011;1102;49.718;11.902;2022-08-04T04:40:56;7.93;;;6.07;;
2191;SDS011;1102;49.718;11.902;2022-08-04T04:52:12;17.67;;;7.60;;
2191;SDS011;1102;49.718;11.902;2022-08-04T04:57:25;12.10;;;7.93;;
2191;SDS011;1102;49.718;11.902;2022-08-04T05:00:16;8.20;;;5.60;;
2191;SDS011;1102;49.718;11.902;2022-08-04T05:14:32;16.97;;;6.97;;
2191;SDS011;1102;49.718;11.902;2022-08-04T05:25:25;8.27;;;7.07;;
2191;SDS011;1102;49.718;11.902;2022-08-04T05:30:34;12.60;;;7.10;;
2191;SDS011;1102;49.718;11.902;2022-08-04T05:33:06;10.57;;;7.27;;
2191;SDS011;1102;49.718;11.902;2022-08-04T05:35:40;11.50;;;6.80;;
2191;SDS011;1102;49.718;11.902;2022-08-04T05:38:37;8.57;;;7.03;;
2191;SDS011;1102;49.718;11.902;2022-08-04T05:41:06;6.93;;;6.23;;
2191;SDS011;1102;49.718;11.902;2022-08-04T05:43:38;14.63;;;7.40;;
2191;SDS011;1102;49.718;11.902;2022-08-04T05:46:08;8.00;;;6.67;;
2191;SDS011;1102;49.718;11.902;2022-08-04T05:48:37;7.03;;;6.40;;
2191;SDS011;1102;49.718;11.902;2022-08-04T05:51:05;10.90;;;6.47;;
2191;SDS011;1102;49.718;11.902;2022-08-04T05:53:36;7.43;;;5.60;;
2191;SDS011;1102;49.718;11.902;2022-08-04T05:56:04;11.20;;;6.10;;
2191;SDS011;1102;49.718;11.902;2022-08-04T05:58:32;9.73;;;5.43;;
2191;SDS011;1102;49.718;11.902;2022-08-04T06:01:01;6.63;;;6.03;;
2191;SDS011;1102;49.718;11.902;2022-08-04T06:03:29;8.20;;;6.30;;
2191;SDS011;1102;49.718;11.902;2022-08-04T06:05:57;5.77;;;5.10;;
2191;SDS011;1102;49.718;11.902;2022-08-04T06:08:25;5.27;;;4.87;;
2191;SDS011;1102;49.718;11.902;2022-08-04T06:10:52;4.60;;;4.30;;
2191;SDS011;1102;49.718;11.902;2022-08-04T06:13:28;4.90;;;4.50;;
2191;SDS011;1102;49.718;11.902;2022-08-04T06:16:15;5.27;;;4.77;;
2191;SDS011;1102;49.718;11.902;2022-08-04T06:18:58;5.83;;;5.10;;
2191;SDS011;1102;49.718;11.902;2022-08-04T06:21:49;4.97;;;4.57;;
2191;SDS011;1102;49.718;11.902;2022-08-04T06:24:19;5.10;;;4.70;;
2191;SDS011;1102;49.718;11.902;2022-08-04T06:26:50;5.30;;;4.80;;
2191;SDS011;1102;49.718;11.902;2022-08-04T06:29:18;4.70;;;4.33;;
2191;SDS011;1102;49.718;11.902;2022-08-04T06:31:53;4.83;;;4.43;;
2191;SDS011;1102;49.718;11.902;2022-08-04T06:34:44;4.70;;;4.27;;
2191;SDS011;1102;49.718;11.902;2022-08-04T06:37:11;5.70;;;4.03;;
2191;SDS011;1102;49.718;11.902;2022-08-04T06:39:59;4.60;;;4.20;;
2191;SDS011;1102;49.718;11.902;2022-08-04T06:42:48;5.70;;;3.60;;
2191;SDS011;1102;49.718;11.902;2022-08-04T06:45:16;6.67;;;3.93;;
2191;SDS011;1102;49.718;11.902;2022-08-04T06:47:45;4.00;;;3.60;;
2191;SDS011;1102;49.718;11.902;2022-08-04T06:50:13;4.27;;;3.90;;
2191;SDS011;1102;49.718;11.902;2022-08-04T06:53:01;4.00;;;3.40;;
2191;SDS011;1102;49.718;11.902;2022-08-04T06:55:29;3.90;;;3.60;;
2191;SDS011;1102;49.718;11.902;2022-08-04T06:57:58;3.40;;;3.03;;
2191;SDS011;1102;49.718;11.902;2022-08-04T07:00:28;3.20;;;2.73;;
2191;SDS011;1102;49.718;11.902;2022-08-04T07:02:57;3.67;;;3.37;;
2191;SDS011;1102;49.718;11.902;2022-08-04T07:05:24;5.53;;;3.40;;
2191;SDS011;1102;49.718;11.902;2022-08-04T07:07:51;3.60;;;3.30;;
2191;SDS011;1102;49.718;11.902;2022-08-04T07:10:27;6.20;;;3.20;;
2191;SDS011;1102;49.718;11.902;2022-08-04T07:12:55;6.70;;;2.73;;
2191;SDS011;1102;49.718;11.902;2022-08-04T07:15:23;2.97;;;2.70;;
2191;SDS011;1102;49.718;11.902;2022-08-04T07:17:51;3.00;;;2.53;;
2191;SDS011;1102;49.718;11.902;2022-08-04T07:20:19;5.03;;;3.97;;
2191;SDS011;1102;49.718;11.902;2022-08-04T07:23:02;4.60;;;3.10;;
2191;SDS011;1102;49.718;11.902;2022-08-04T07:25:29;3.87;;;3.50;;
2191;SDS011;1102;49.718;11.902;2022-08-04T07:28:17;6.73;;;3.10;;
2191;SDS011;1102;49.718;11.902;2022-08-04T07:30:46;3.80;;;3.50;;
2191;SDS011;1102;49.718;11.902;2022-08-04T07:33:15;4.30;;;2.97;;
2191;SDS011;1102;49.718;11.902;2022-08-04T07:35:43;5.20;;;3.10;;
2191;SDS011;1102;49.718;11.902;2022-08-04T07:38:31;4.67;;;3.33;;
2191;SDS011;1102;49.718;11.902;2022-08-04T07:41:02;3.70;;;3.50;;
2191;SDS011;1102;49.718;11.902;2022-08-04T07:43:51;5.90;;;5.00;;
2191;SDS011;1102;49.718;11.902;2022-08-04T07:46:20;5.60;;;3.47;;
2191;SDS011;1102;49.718;11.902;2022-08-04T07:48:47;3.13;;;2.90;;
2191;SDS011;1102;49.718;11.902;2022-08-04T07:51:14;3.27;;;2.97;;
2191;SDS011;1102;49.718;11.902;2022-08-04T07:53:42;3.67;;;2.83;;
2191;SDS011;1102;49.718;11.902;2022-08-04T07:56:20;3.57;;;3.20;;
2191;SDS011;1102;49.718;11.902;2022-08-04T07:58:47;3.23;;;3.03;;
2191;SDS011;1102;49.718;11.902;2022-08-04T08:01:15;4.13;;;3.70;;
2191;SDS011;1102;49.718;11.902;2022-08-04T08:03:42;5.80;;;3.20;;
2191;SDS011;1102;49.718;11.902;2022-08-04T08:06:09;3.40;;;3.10;;
2191;SDS011;1102;49.718;11.902;2022-08-04T08:08:57;10.87;;;3.10;;
2191;SDS011;1102;49.718;11.902;2022-08-04T08:11:42;3.57;;;3.23;;
2191;SDS011;1102;49.718;11.902;2022-08-04T08:14:29;3.70;;;3.50;;
2191;SDS011;1102;49.718;11.902;2022-08-04T08:16:58;3.80;;;3.50;;
2191;SDS011;1102;49.718;11.902;2022-08-04T08:19:25;3.20;;;2.90;;
2191;SDS011;1102;49.718;11.902;2022-08-04T08:21:52;3.40;;;3.20;;
2191;SDS011;1102;49.718;11.902;2022-08-04T08:24:25;4.07;;;3.73;;
2191;SDS011;1102;49.718;11.902;2022-08-04T08:26:53;3.63;;;3.43;;
2191;SDS011;1102;49.718;11.902;2022-08-04T08:29:22;3.87;;;3.50;;
2191;SDS011;1102;49.718;11.902;2022-08-04T08:31:50;9.83;;;3.70;;
2191;SDS011;1102;49.718;11.902;2022-08-04T08:34:25;2.90;;;2.70;;
2191;SDS011;1102;49.718;11.902;2022-08-04T08:37:02;4.17;;;3.30;;
2191;SDS011;1102;49.718;11.902;2022-08-04T08:39:33;3.37;;;3.13;;
2191;SDS011;1102;49.718;11.902;2022-08-04T08:51:08;4.00;;;3.40;;
2191;SDS011;1102;49.718;11.902;2022-08-04T08:53:53;4.57;;;3.30;;
2191;SDS011;1102;49.718;11.902;2022-08-04T09:11:12;5.00;;;2.70;;
2191;SDS011;1102;49.718;11.902;2022-08-04T09:16:41;2.87;;;2.53;;
2191;SDS011;1102;49.718;11.902;2022-08-04T09:39:02;4.40;;;2.90;;
2191;SDS011;1102;49.718;11.902;2022-08-04T09:41:37;3.30;;;3.00;;
2191;SDS011;1102;49.718;11.902;2022-08-04T09:47:34;3.10;;;2.80;;
2191;SDS011;1102;49.718;11.902;2022-08-04T09:50:11;8.77;;;2.60;;
2191;SDS011;1102;49.718;11.902;2022-08-04T09:52:48;2.70;;;2.50;;
2191;SDS011;1102;49.718;11.902;2022-08-04T09:58:00;3.30;;;3.10;;
2191;SDS011;1102;49.718;11.902;2022-08-04T10:00:48;3.20;;;2.90;;
2191;SDS011;1102;49.718;11.902;2022-08-04T10:03:19;2.90;;;2.70;;
2191;SDS011;1102;49.718;11.902;2022-08-04T10:05:59;2.73;;;2.53;;
2191;SDS011;1102;49.718;11.902;2022-08-04T10:08:53;3.20;;;3.00;;
2191;SDS011;1102;49.718;11.902;2022-08-04T10:14:37;3.93;;;2.73;;
2191;SDS011;1102;49.718;11.902;2022-08-04T10:19:41;3.33;;;2.60;;
2191;SDS011;1102;49.718;11.902;2022-08-04T10:22:14;3.07;;;2.87;;
2191;SDS011;1102;49.718;11.902;2022-08-04T10:28:11;3.37;;;3.17;;
2191;SDS011;1102;49.718;11.902;2022-08-04T10:30:42;3.30;;;3.07;;
2191;SDS011;1102;49.718;11.902;2022-08-04T10:33:20;3.67;;;3.20;;
2191;SDS011;1102;49.718;11.902;2022-08-04T10:35:53;3.30;;;2.90;;
2191;SDS011;1102;49.718;11.902;2022-08-04T10:40:57;2.90;;;2.70;;
2191;SDS011;1102;49.718;11.902;2022-08-04T10:54:18;2.90;;;2.70;;
2191;SDS011;1102;49.718;11.902;2022-08-04T10:56:53;2.90;;;2.70;;
2191;SDS011;1102;49.718;11.902;2022-08-04T10:59:38;3.30;;;3.00;;
2191;SDS011;1102;49.718;11.902;2022-08-04T11:07:48;5.60;;;2.57;;
2191;SDS011;1102;49.718;11.902;2022-08-04T11:10:19;3.10;;;2.90;;
2191;SDS011;1102;49.718;11.902;2022-08-04T11:12:53;4.80;;;3.23;;
2191;SDS011;1102;49.718;11.902;2022-08-04T11:15:34;3.50;;;3.20;;
2191;SDS011;1102;49.718;11.902;2022-08-04T11:18:05;3.20;;;2.70;;
2191;SDS011;1102;49.718;11.902;2022-08-04T11:20:47;2.43;;;2.33;;
2191;SDS011;1102;49.718;11.902;2022-08-04T11:23:23;2.90;;;2.70;;
2191;SDS011;1102;49.718;11.902;2022-08-04T11:31:31;3.20;;;3.00;;
2191;SDS011;1102;49.718;11.902;2022-08-04T11:34:12;3.50;;;3.20;;
2191;SDS011;1102;49.718;11.902;2022-08-04T11:42:22;3.40;;;3.10;;
2191;SDS011;1102;49.718;11.902;2022-08-04T11:45:02;2.83;;;2.63;;
2191;SDS011;1102;49.718;11.902;2022-08-04T11:50:37;8.07;;;4.27;;
2191;SDS011;1102;49.718;11.902;2022-08-04T11:53:07;3.50;;;3.20;;
2191;SDS011;1102;49.718;11.902;2022-08-04T11:55:36;3.27;;;2.97;;
2191;SDS011;1102;49.718;11.902;2022-08-04T11:58:24;3.27;;;3.00;;
2191;SDS011;1102;49.718;11.902;2022-08-04T12:12:15;2.80;;;2.60;;
2191;SDS011;1102;49.718;11.902;2022-08-04T12:15:11;2.53;;;2.33;;
2191;SDS011;1102;49.718;11.902;2022-08-04T12:17:50;2.97;;;2.73;;
2191;SDS011;1102;49.718;11.902;2022-08-04T12:20:27;3.73;;;3.47;;
2191;SDS011;1102;49.718;11.902;2022-08-04T12:23:07;3.10;;;2.90;;
2191;SDS011;1102;49.718;11.902;2022-08-04T12:25:42;6.10;;;2.70;;
2191;SDS011;1102;49.718;11.902;2022-08-04T12:28:17;2.70;;;2.50;;
2191;SDS011;1102;49.718;11.902;2022-08-04T12:30:54;2.50;;;2.40;;
2191;SDS011;1102;49.718;11.902;2022-08-04T12:39:23;2.70;;;2.50;;
2191;SDS011;1102;49.718;11.902;2022-08-04T12:44:22;2.80;;;2.60;;
2191;SDS011;1102;49.718;11.902;2022-08-04T12:47:04;2.93;;;2.73;;
2191;SDS011;1102;49.718;11.902;2022-08-04T12:49:55;2.87;;;2.67;;
2191;SDS011;1102;49.718;11.902;2022-08-04T12:52:29;2.47;;;2.33;;
2191;SDS011;1102;49.718;11.902;2022-08-04T12:55:19;3.03;;;2.83;;
2191;SDS011;1102;49.718;11.902;2022-08-04T12:57:52;2.97;;;2.77;;
2191;SDS011;1102;49.718;11.902;2022-08-04T13:03:19;5.67;;;2.67;;
2191;SDS011;1102;49.718;11.902;2022-08-04T13:05:51;5.40;;;2.57;;
2191;SDS011;1102;49.718;11.902;2022-08-04T13:08:20;2.30;;;1.77;;
2191;SDS011;1102;49.718;11.902;2022-08-04T13:10:49;2.70;;;2.33;;
2191;SDS011;1102;49.718;11.902;2022-08-04T13:13:19;2.53;;;2.33;;
2191;SDS011;1102;49.718;11.902;2022-08-04T13:16:00;2.67;;;2.47;;
2191;SDS011;1102;49.718;11.902;2022-08-04T13:18:29;2.70;;;2.50;;
2191;SDS011;1102;49.718;11.902;2022-08-04T13:21:17;3.57;;;2.30;;
2191;SDS011;1102;49.718;11.902;2022-08-04T13:23:53;3.07;;;2.23;;
2191;SDS011;1102;49.718;11.902;2022-08-04T13:29:35;3.30;;;2.00;;
2191;SDS011;1102;49.718;11.902;2022-08-04T13:32:22;2.73;;;2.53;;
2191;SDS011;1102;49.718;11.902;2022-08-04T13:34:51;3.53;;;3.10;;
2191;SDS011;1102;49.718;11.902;2022-08-04T13:37:22;4.43;;;3.10;;
2191;SDS011;1102;49.718;11.902;2022-08-04T13:39:52;2.77;;;2.57;;
2191;SDS011;1102;49.718;11.902;2022-08-04T13:42:23;3.07;;;2.47;;
2191;SDS011;1102;49.718;11.902;2022-08-04T13:44:58;4.70;;;2.67;;
2191;SDS011;1102;49.718;11.902;2022-08-04T13:47:33;2.73;;;2.53;;
2191;SDS011;1102;49.718;11.902;2022-08-04T13:50:20;2.20;;;2.10;;
2191;SDS011;1102;49.718;11.902;2022-08-04T13:52:52;2.93;;;2.70;;
2191;SDS011;1102;49.718;11.902;2022-08-04T13:55:25;2.40;;;2.20;;
2191;SDS011;1102;49.718;11.902;2022-08-04T14:00:53;2.67;;;2.47;;
2191;SDS011;1102;49.718;11.902;2022-08-04T14:03:30;4.77;;;2.60;;
2191;SDS011;1102;49.718;11.902;2022-08-04T14:06:22;2.37;;;2.17;;
2191;SDS011;1102;49.718;11.902;2022-08-04T14:09:13;2.23;;;2.13;;
2191;SDS011;1102;49.718;11.902;2022-08-04T14:11:43;2.53;;;2.43;;
2191;SDS011;1102;49.718;11.902;2022-08-04T14:14:32;2.50;;;2.30;;
2191;SDS011;1102;49.718;11.902;2022-08-04T14:17:06;2.63;;;2.43;;
2191;SDS011;1102;49.718;11.902;2022-08-04T14:27:27;2.20;;;2.10;;
2191;SDS011;1102;49.718;11.902;2022-08-04T14:29:54;2.63;;;2.43;;
2191;SDS011;1102;49.718;11.902;2022-08-04T14:32:21;3.80;;;2.50;;
2191;SDS011;1102;49.718;11.902;2022-08-04T14:34:51;2.83;;;2.50;;
2191;SDS011;1102;49.718;11.902;2022-08-04T14:37:18;3.30;;;2.20;;
2191;SDS011;1102;49.718;11.902;2022-08-04T14:39:49;2.70;;;2.50;;
2191;SDS011;1102;49.718;11.902;2022-08-04T14:42:43;3.23;;;2.20;;
2191;SDS011;1102;49.718;11.902;2022-08-04T14:48:20;2.10;;;2.00;;
2191;SDS011;1102;49.718;11.902;2022-08-04T14:50:48;2.40;;;2.20;;
2191;SDS011;1102;49.718;11.902;2022-08-04T14:55:53;2.53;;;2.33;;
2191;SDS011;1102;49.718;11.902;2022-08-04T14:58:23;3.00;;;2.80;;
2191;SDS011;1102;49.718;11.902;2022-08-04T15:01:04;2.47;;;2.27;;
2191;SDS011;1102;49.718;11.902;2022-08-04T15:03:40;2.37;;;2.27;;
2191;SDS011;1102;49.718;11.902;2022-08-04T15:06:19;2.60;;;2.40;;
2191;SDS011;1102;49.718;11.902;2022-08-04T15:08:52;3.47;;;2.23;;
2191;SDS011;1102;49.718;11.902;2022-08-04T15:11:20;2.73;;;2.30;;
2191;SDS011;1102;49.718;11.902;2022-08-04T15:13:49;2.57;;;2.47;;
2191;SDS011;1102;49.718;11.902;2022-08-04T15:16:21;2.40;;;2.20;;
2191;SDS011;1102;49.718;11.902;2022-08-04T15:18:50;2.47;;;2.30;;
2191;SDS011;1102;49.718;11.902;2022-08-04T15:21:20;3.43;;;2.57;;
2191;SDS011;1102;49.718;11.902;2022-08-04T15:23:48;2.63;;;2.40;;
2191;SDS011;1102;49.718;11.902;2022-08-04T15:26:17;2.80;;;2.60;;
2191;SDS011;1102;49.718;11.902;2022-08-04T15:29:26;2.53;;;2.33;;
2191;SDS011;1102;49.718;11.902;2022-08-04T15:32:17;2.60;;;2.40;;
2191;SDS011;1102;49.718;11.902;2022-08-04T15:34:46;2.30;;;2.20;;
2191;SDS011;1102;49.718;11.902;2022-08-04T15:37:17;2.50;;;2.30;;
2191;SDS011;1102;49.718;11.902;2022-08-04T15:40:08;2.30;;;2.20;;
2191;SDS011;1102;49.718;11.902;2022-08-04T15:45:47;2.63;;;2.37;;
2191;SDS011;1102;49.718;11.902;2022-08-04T15:48:37;3.13;;;2.67;;
2191;SDS011;1102;49.718;11.902;2022-08-04T15:51:08;2.73;;;2.57;;
2191;SDS011;1102;49.718;11.902;2022-08-04T15:58:55;3.13;;;2.83;;
2191;SDS011;1102;49.718;11.902;2022-08-04T16:01:22;4.53;;;2.40;;
2191;SDS011;1102;49.718;11.902;2022-08-04T16:03:50;3.03;;;2.83;;
2191;SDS011;1102;49.718;11.902;2022-08-04T16:09:01;3.87;;;3.20;;
2191;SDS011;1102;49.718;11.902;2022-08-04T16:19:04;2.33;;;2.13;;
2191;SDS011;1102;49.718;11.902;2022-08-04T16:21:33;6.10;;;2.90;;
2191;SDS011;1102;49.718;11.902;2022-08-04T16:24:20;2.90;;;2.70;;
2191;SDS011;1102;49.718;11.902;2022-08-04T16:27:02;2.90;;;2.70;;
2191;SDS011;1102;49.718;11.902;2022-08-04T16:32:10;2.97;;;2.60;;
2191;SDS011;1102;49.718;11.902;2022-08-04T16:34:43;3.10;;;2.90;;
2191;SDS011;1102;49.718;11.902;2022-08-04T16:37:34;3.60;;;3.10;;
2191;SDS011;1102;49.718;11.902;2022-08-04T16:43:16;5.37;;;2.73;;
2191;SDS011;1102;49.718;11.902;2022-08-04T16:45:54;3.37;;;2.80;;
2191;SDS011;1102;49.718;11.902;2022-08-04T16:48:33;3.37;;;3.10;;
2191;SDS011;1102;49.718;11.902;2022-08-04T16:51:01;3.50;;;3.07;;
2191;SDS011;1102;49.718;11.902;2022-08-04T16:53:41;3.10;;;2.90;;
2191;SDS011;1102;49.718;11.902;2022-08-04T16:56:30;3.53;;;3.23;;
2191;SDS011;1102;49.718;11.902;2022-08-04T16:59:08;2.87;;;2.67;;
2191;SDS011;1102;49.718;11.902;2022-08-04T17:01:37;3.80;;;3.10;;
2191;SDS011;1102;49.718;11.902;2022-08-04T17:04:11;2.80;;;2.60;;
2191;SDS011;1102;49.718;11.902;2022-08-04T17:06:39;7.43;;;3.13;;
2191;SDS011;1102;49.718;11.902;2022-08-04T17:09:10;2.70;;;2.60;;
2191;SDS011;1102;49.718;11.902;2022-08-04T17:11:45;2.80;;;2.70;;
2191;SDS011;1102;49.718;11.902;2022-08-04T17:14:15;2.90;;;2.70;;
2191;SDS011;1102;49.718;11.902;2022-08-04T17:16:48;2.87;;;2.60;;
2191;SDS011;1102;49.718;11.902;2022-08-04T17:19:15;2.93;;;2.60;;
2191;SDS011;1102;49.718;11.902;2022-08-04T17:21:55;2.87;;;2.67;;
2191;SDS011;1102;49.718;11.902;2022-08-04T17:24:31;3.13;;;2.93;;
2191;SDS011;1102;49.718;11.902;2022-08-04T17:26:59;2.70;;;2.43;;
2191;SDS011;1102;49.718;11.902;2022-08-04T17:29:26;3.30;;;3.10;;
2191;SDS011;1102;49.718;11.902;2022-08-04T17:32:15;6.97;;;3.07;;
2191;SDS011;1102;49.718;11.902;2022-08-04T17:34:47;2.40;;;2.17;;
2191;SDS011;1102;49.718;11.902;2022-08-04T17:37:16;4.50;;;2.40;;
2191;SDS011;1102;49.718;11.902;2022-08-04T17:40:10;2.70;;;2.50;;
2191;SDS011;1102;49.718;11.902;2022-08-04T17:42:39;4.17;;;3.33;;
2191;SDS011;1102;49.718;11.902;2022-08-04T17:45:11;3.87;;;3.27;;
2191;SDS011;1102;49.718;11.902;2022-08-04T17:48:01;3.47;;;3.17;;
2191;SDS011;1102;49.718;11.902;2022-08-04T17:50:34;3.03;;;2.73;;
2191;SDS011;1102;49.718;11.902;2022-08-04T17:53:05;4.27;;;3.00;;
2191;SDS011;1102;49.718;11.902;2022-08-04T17:55:39;4.00;;;3.03;;
2191;SDS011;1102;49.718;11.902;2022-08-04T17:58:20;3.70;;;3.40;;
2191;SDS011;1102;49.718;11.902;2022-08-04T18:01:01;2.90;;;2.60;;
2191;SDS011;1102;49.718;11.902;2022-08-04T18:03:48;4.60;;;3.13;;
2191;SDS011;1102;49.718;11.902;2022-08-04T18:06:20;3.60;;;3.37;;
2191;SDS011;1102;49.718;11.902;2022-08-04T18:08:54;3.10;;;2.90;;
2191;SDS011;1102;49.718;11.902;2022-08-04T18:11:50;3.87;;;2.93;;
2191;SDS011;1102;49.718;11.902;2022-08-04T18:14:44;2.80;;;2.60;;
2191;SDS011;1102;49.718;11.902;2022-08-04T18:17:28;3.20;;;2.93;;
2191;SDS011;1102;49.718;11.902;2022-08-04T18:20:16;2.73;;;2.50;;
2191;SDS011;1102;49.718;11.902;2022-08-04T18:22:48;3.10;;;2.80;;
2191;SDS011;1102;49.718;11.902;2022-08-04T18:25:15;5.77;;;2.50;;
2191;SDS011;1102;49.718;11.902;2022-08-04T18:27:47;3.10;;;2.90;;
2191;SDS011;1102;49.718;11.902;2022-08-04T18:30:19;3.07;;;2.87;;
2191;SDS011;1102;49.718;11.902;2022-08-04T18:33:08;3.90;;;2.77;;
2191;SDS011;1102;49.718;11.902;2022-08-04T18:35:55;3.30;;;3.10;;
2191;SDS011;1102;49.718;11.902;2022-08-04T18:38:41;6.27;;;3.83;;
2191;SDS011;1102;49.718;11.902;2022-08-04T18:41:23;3.97;;;3.00;;
2191;SDS011;1102;49.718;11.902;2022-08-04T18:43:52;4.83;;;3.23;;
2191;SDS011;1102;49.718;11.902;2022-08-04T18:46:22;3.10;;;2.90;;
2191;SDS011;1102;49.718;11.902;2022-08-04T18:49:09;3.00;;;2.80;;
2191;SDS011;1102;49.718;11.902;2022-08-04T18:51:56;3.03;;;2.83;;
2191;SDS011;1102;49.718;11.902;2022-08-04T18:54:27;4.17;;;3.87;;
2191;SDS011;1102;49.718;11.902;2022-08-04T18:56:57;5.80;;;4.50;;
2191;SDS011;1102;49.718;11.902;2022-08-04T18:59:44;5.20;;;4.80;;
2191;SDS011;1102;49.718;11.902;2022-08-04T19:02:11;5.27;;;4.87;;
2191;SDS011;1102;49.718;11.902;2022-08-04T19:04:43;4.57;;;4.10;;
2191;SDS011;1102;49.718;11.902;2022-08-04T19:07:15;4.70;;;4.23;;
2191;SDS011;1102;49.718;11.902;2022-08-04T19:09:55;3.90;;;3.60;;
2191;SDS011;1102;49.718;11.902;2022-08-04T19:12:24;3.90;;;3.60;;
2191;SDS011;1102;49.718;11.902;2022-08-04T19:14:54;4.17;;;3.87;;
2191;SDS011;1102;49.718;11.902;2022-08-04T19:17:24;5.43;;;3.33;;
2191;SDS011;1102;49.718;11.902;2022-08-04T19:20:11;3.20;;;3.00;;
2191;SDS011;1102;49.718;11.902;2022-08-04T19:22:50;3.70;;;3.40;;
2191;SDS011;1102;49.718;11.902;2022-08-04T19:25:37;3.80;;;3.37;;
2191;SDS011;1102;49.718;11.902;2022-08-04T19:28:26;6.67;;;4.17;;
2191;SDS011;1102;49.718;11.902;2022-08-04T19:30:57;3.90;;;3.40;;
2191;SDS011;1102;49.718;11.902;2022-08-04T19:33:24;6.77;;;3.33;;
2191;SDS011;1102;49.718;11.902;2022-08-04T19:36:11;3.47;;;3.27;;
2191;SDS011;1102;49.718;11.902;2022-08-04T19:38:42;6.20;;;3.40;;
2191;SDS011;1102;49.718;11.902;2022-08-04T19:41:36;4.10;;;3.53;;
2191;SDS011;1102;49.718;11.902;2022-08-04T19:44:23;3.87;;;3.57;;
2191;SDS011;1102;49.718;11.902;2022-08-04T19:46:54;4.90;;;3.50;;
2191;SDS011;1102;49.718;11.902;2022-08-04T19:49:25;6.53;;;3.70;;
2191;SDS011;1102;49.718;11.902;2022-08-04T19:52:12;4.13;;;3.53;;
2191;SDS011;1102;49.718;11.902;2022-08-04T19:54:39;3.90;;;3.70;;
2191;SDS011;1102;49.718;11.902;2022-08-04T19:57:06;6.80;;;3.40;;
2191;SDS011;1102;49.718;11.902;2022-08-04T19:59:37;12.73;;;4.73;;
2191;SDS011;1102;49.718;11.902;2022-08-04T20:02:13;3.63;;;3.33;;
2191;SDS011;1102;49.718;11.902;2022-08-04T20:04:40;6.20;;;4.53;;
2191;SDS011;1102;49.718;11.902;2022-08-04T20:07:07;4.67;;;4.27;;
2191;SDS011;1102;49.718;11.902;2022-08-04T20:09:39;5.30;;;4.10;;
2191;SDS011;1102;49.718;11.902;2022-08-04T20:12:18;4.90;;;4.50;;
2191;SDS011;1102;49.718;11.902;2022-08-04T20:14:46;4.40;;;4.10;;
2191;SDS011;1102;49.718;11.902;2022-08-04T20:17:13;5.00;;;4.10;;
2191;SDS011;1102;49.718;11.902;2022-08-04T20:19:43;5.67;;;4.07;;
2191;SDS011;1102;49.718;11.902;2022-08-04T20:22:17;4.33;;;3.93;;
2191;SDS011;1102;49.718;11.902;2022-08-04T20:25:08;6.30;;;3.90;;
2191;SDS011;1102;49.718;11.902;2022-08-04T20:27:56;4.27;;;3.97;;
2191;SDS011;1102;49.718;11.902;2022-08-04T20:30:26;4.13;;;3.83;;
2191;SDS011;1102;49.718;11.902;2022-08-04T20:32:56;4.77;;;4.37;;
2191;SDS011;1102;49.718;11.902;2022-08-04T20:35:22;5.40;;;4.90;;
2191;SDS011;1102;49.718;11.902;2022-08-04T20:37:52;17.23;;;5.57;;
2191;SDS011;1102;49.718;11.902;2022-08-04T20:40:25;17.27;;;6.63;;
2191;SDS011;1102;49.718;11.902;2022-08-04T20:42:52;20.83;;;7.20;;
2191;SDS011;1102;49.718;11.902;2022-08-04T20:45:22;29.17;;;9.03;;
2191;SDS011;1102;49.718;11.902;2022-08-04T20:48:09;22.53;;;8.20;;
2191;SDS011;1102;49.718;11.902;2022-08-04T20:50:35;24.03;;;6.60;;
2191;SDS011;1102;49.718;11.902;2022-08-04T20:53:04;21.37;;;7.87;;
2191;SDS011;1102;49.718;11.902;2022-08-04T20:55:42;21.43;;;8.87;;
2191;SDS011;1102;49.718;11.902;2022-08-04T20:58:21;33.60;;;8.90;;
2191;SDS011;1102;49.718;11.902;2022-08-04T21:00:53;19.97;;;8.03;;